createdAt,value
2017-11-10T00:00:04.422Z,1018.89
2017-11-10T00:05:03.322Z,1018.89
2017-11-10T00:10:02.883Z,1018.48
2017-11-10T00:15:03.481Z,1018.7
2017-11-10T00:20:02.951Z,1018.92
2017-11-10T00:25:03.611Z,1018.9
2017-11-10T00:30:03.049Z,1018.82
2017-11-10T00:35:03.627Z,1018.69
2017-11-10T00:40:03.137Z,1018.33
2017-11-10T00:45:03.593Z,1018.37
2017-11-10T00:50:03.117Z,1018.4
2017-11-10T00:55:03.612Z,1018.43
2017-11-10T01:00:03.210Z,1018.24
2017-11-10T01:05:03.532Z,1018.35
2017-11-10T01:10:03.172Z,1018.28
2017-11-10T01:15:02.708Z,1018.25
2017-11-10T01:20:03.392Z,1018.25
2017-11-10T01:25:02.951Z,1018.06
2017-11-10T01:30:03.548Z,1017.96
2017-11-10T01:35:03.021Z,1018
2017-11-10T01:40:02.737Z,1018.03
2017-11-10T01:45:03.290Z,1017.9
2017-11-10T01:50:02.915Z,1017.62
2017-11-10T01:55:03.415Z,1017.59
2017-11-10T02:00:03.069Z,1017.63
2017-11-10T02:05:02.698Z,1017.73
2017-11-10T02:10:03.364Z,1017.67
2017-11-10T02:15:03.004Z,1017.37
2017-11-10T02:20:02.726Z,1017.43
2017-11-10T02:25:03.216Z,1017.19
2017-11-10T02:30:02.712Z,1017.09
2017-11-10T02:35:03.349Z,1017.14
2017-11-10T02:40:03.022Z,1017.14
2017-11-10T02:45:03.686Z,1017.14
2017-11-10T02:50:03.272Z,1016.92
2017-11-10T02:55:02.966Z,1016.82
2017-11-10T03:00:03.668Z,1016.71
2017-11-10T03:05:03.117Z,1016.52
2017-11-10T03:10:02.817Z,1016.43
2017-11-10T03:15:03.320Z,1016.31
2017-11-10T03:20:02.935Z,1016.33
2017-11-10T03:25:03.361Z,1016.34
2017-11-10T03:30:03.104Z,1016.32
2017-11-10T03:35:02.726Z,1016.22
2017-11-10T03:40:03.265Z,1016.4
2017-11-10T03:45:02.704Z,1016.3
2017-11-10T03:50:03.383Z,1016.23
2017-11-10T03:55:02.879Z,1015.98
2017-11-10T04:00:03.514Z,1015.88
2017-11-10T04:05:03.148Z,1015.92
2017-11-10T04:10:03.016Z,1015.74
2017-11-10T04:15:03.625Z,1015.69
2017-11-10T04:20:03.245Z,1015.63
2017-11-10T04:25:03.655Z,1015.69
2017-11-10T04:30:03.337Z,1015.5
2017-11-10T04:35:02.892Z,1015.47
2017-11-10T04:40:03.521Z,1015.29
2017-11-10T04:45:02.995Z,1015.25
2017-11-10T04:50:03.537Z,1015.3
2017-11-10T04:55:02.972Z,1015.14
2017-11-10T05:00:03.397Z,1015.05
2017-11-10T05:05:02.811Z,1015.12
2017-11-10T05:10:03.320Z,1015.09
2017-11-10T05:15:02.794Z,1015.19
2017-11-10T05:20:03.477Z,1014.73
2017-11-10T05:25:02.980Z,1014.73
2017-11-10T05:30:03.698Z,1014.77
2017-11-10T05:35:03.407Z,1014.84
2017-11-10T05:40:03.123Z,1014.91
2017-11-10T05:45:03.597Z,1014.92
2017-11-10T05:50:03.322Z,1014.9
2017-11-10T05:55:02.844Z,1014.84
2017-11-10T06:00:03.546Z,1014.79
2017-11-10T06:05:03.219Z,1014.74
2017-11-10T06:10:02.863Z,1014.75
2017-11-10T06:15:03.521Z,1014.75
2017-11-10T06:20:03.047Z,1014.79
2017-11-10T06:25:03.613Z,1014.84
2017-11-10T06:30:03.212Z,1014.75
2017-11-10T06:35:02.684Z,1014.73
2017-11-10T06:40:03.220Z,1014.66
2017-11-10T06:45:02.859Z,1014.69
2017-11-10T06:50:03.554Z,1014.61
2017-11-10T06:55:03.172Z,1014.52
2017-11-10T07:00:02.846Z,1014.4
2017-11-10T07:05:03.368Z,1014.32
2017-11-10T07:10:03.060Z,1014.16
2017-11-10T07:15:03.651Z,1014.14
2017-11-10T07:20:03.274Z,1013.8
2017-11-10T07:25:02.834Z,1013.8
2017-11-10T07:30:03.346Z,1013.74
2017-11-10T07:35:02.816Z,1013.77
2017-11-10T07:40:03.353Z,1013.62
2017-11-10T07:45:02.852Z,1013.57
2017-11-10T07:50:03.485Z,1013.52
2017-11-10T07:55:03.076Z,1013.66
2017-11-10T08:00:03.525Z,1013.6
2017-11-10T08:05:03.102Z,1013.57
2017-11-10T08:10:03.623Z,1013.46
2017-11-10T08:15:03.145Z,1013.47
2017-11-10T08:20:02.725Z,1013.3
2017-11-10T08:25:03.215Z,1013.29
2017-11-10T08:30:02.900Z,1013.28
2017-11-10T08:35:03.473Z,1013.01
2017-11-10T08:40:03.044Z,1012.96
2017-11-10T08:45:02.702Z,1012.83
2017-11-10T08:55:03.043Z,1012.66
2017-11-10T09:00:03.537Z,1012.74
2017-11-10T09:05:03.060Z,1012.7
2017-11-10T09:10:03.664Z,1012.67
2017-11-10T09:15:03.310Z,1012.57
2017-11-10T09:20:03.114Z,1012.39
2017-11-10T09:25:03.715Z,1012.45
2017-11-10T09:30:03.293Z,1012.3
2017-11-10T09:35:02.847Z,1012.2
2017-11-10T09:40:03.618Z,1012.13
2017-11-10T09:45:03.219Z,1012.12
2017-11-10T09:50:02.992Z,1012.15
2017-11-10T09:55:02.760Z,1012.03
2017-11-10T10:00:03.317Z,1011.91
2017-11-10T10:05:03.060Z,1011.85
2017-11-10T10:10:02.814Z,1011.84
2017-11-10T10:15:03.348Z,1011.83
2017-11-10T10:20:02.968Z,1011.74
2017-11-10T10:25:03.476Z,1011.63
2017-11-10T10:30:03.150Z,1011.56
2017-11-10T10:35:03.719Z,1011.5
2017-11-10T10:40:03.250Z,1011.44
2017-11-10T10:45:02.783Z,1011.33
2017-11-10T10:50:03.311Z,1011.32
2017-11-10T10:55:02.870Z,1011.29
2017-11-10T11:00:03.305Z,1011.2
2017-11-10T11:05:03.011Z,1011.2
2017-11-10T11:10:03.716Z,1011.05
2017-11-10T11:15:03.505Z,1011.02
2017-11-10T11:20:03.056Z,1010.84
2017-11-10T11:25:02.732Z,1010.7
2017-11-10T11:30:03.251Z,1010.5
2017-11-10T11:35:02.809Z,1010.49
2017-11-10T11:40:03.343Z,1010.52
2017-11-10T11:45:03.710Z,1010.44
2017-11-10T11:50:03.332Z,1010.23
2017-11-10T11:55:02.893Z,1010.28
2017-11-10T12:00:03.350Z,1010.26
2017-11-10T12:05:02.998Z,1010.29
2017-11-10T12:10:02.733Z,1010.2
2017-11-10T12:15:03.426Z,1010.09
2017-11-10T12:20:03.058Z,1010.13
2017-11-10T13:35:03.442Z,1010.27
2017-11-10T13:40:03.247Z,1010.3
2017-11-10T13:45:02.842Z,1010.28
2017-11-10T13:50:03.520Z,1010.51
2017-11-10T13:55:03.114Z,1010.61
2017-11-10T14:00:02.788Z,1010.6
2017-11-10T14:05:03.456Z,1010.74
2017-11-10T14:10:03.052Z,1010.79
2017-11-10T14:15:03.690Z,1011.02
2017-11-10T14:20:03.387Z,1011.23
2017-11-10T14:25:02.981Z,1011.22
2017-11-10T14:30:02.746Z,1011.26
2017-11-10T14:35:03.321Z,1011.37
2017-11-10T14:40:02.907Z,1011.38
2017-11-10T14:45:03.437Z,1011.43
2017-11-10T14:50:02.922Z,1011.58
2017-11-10T14:55:03.501Z,1011.66
2017-11-10T15:05:03.554Z,1011.78
2017-11-10T15:10:03.243Z,1011.71
2017-11-10T15:15:02.724Z,1011.8
2017-11-10T15:20:03.347Z,1011.96
2017-11-10T15:25:02.861Z,1012.03
2017-11-10T15:30:03.554Z,1012.01
2017-11-10T15:35:03.228Z,1012.14
2017-11-10T15:40:02.987Z,1012.11
2017-11-10T15:45:03.649Z,1012.12
2017-11-10T15:50:03.241Z,1012.2
2017-11-10T15:55:02.902Z,1012.32
2017-11-10T16:00:03.491Z,1012.26
2017-11-10T16:05:02.831Z,1012.4
2017-11-10T16:10:03.631Z,1012.38
2017-11-10T16:15:03.216Z,1012.56
2017-11-10T16:20:03.039Z,1012.53
2017-11-10T16:25:02.774Z,1012.62
2017-11-10T16:30:03.448Z,1012.63
2017-11-10T16:35:02.975Z,1012.74
2017-11-10T16:40:03.692Z,1012.72
2017-11-10T16:45:03.444Z,1012.74
2017-11-10T16:50:03.133Z,1012.94
2017-11-10T16:55:02.827Z,1013.03
2017-11-10T17:00:03.333Z,1013.03
2017-11-10T17:05:03.003Z,1013.08
2017-11-10T17:10:02.738Z,1013.12
2017-11-10T17:15:03.263Z,1013.11
2017-11-10T17:20:02.987Z,1013.19
2017-11-10T17:25:03.689Z,1013.22
2017-11-10T17:30:03.135Z,1013.26
2017-11-10T17:35:02.776Z,1013.3
2017-11-10T17:40:03.447Z,1013.38
2017-11-10T17:45:02.960Z,1013.43
2017-11-10T17:50:03.451Z,1013.41
2017-11-10T17:55:03.099Z,1013.46
2017-11-10T18:00:02.760Z,1013.48
2017-11-10T18:05:03.419Z,1013.56
2017-11-10T18:10:03.127Z,1013.63
2017-11-10T18:15:02.806Z,1013.65
2017-11-10T18:20:03.474Z,1013.65
2017-11-10T18:25:02.972Z,1013.64
2017-11-10T18:30:03.571Z,1013.67
2017-11-10T18:35:03.181Z,1013.61
2017-11-10T18:40:03.663Z,1013.61
2017-11-10T18:45:03.292Z,1013.64
2017-11-10T18:50:02.765Z,1013.54
2017-11-10T18:55:03.355Z,1013.71
2017-11-10T19:00:02.905Z,1013.71
2017-11-10T19:05:03.366Z,1013.82
2017-11-10T19:10:03.031Z,1013.75
2017-11-10T19:15:03.631Z,1013.79
2017-11-10T19:20:03.159Z,1013.89
2017-11-10T19:25:02.873Z,1013.85
2017-11-10T19:30:03.350Z,1013.74
2017-11-10T19:35:03.148Z,1013.75
2017-11-10T19:40:03.697Z,1013.78
2017-11-10T19:45:03.259Z,1013.81
2017-11-10T19:50:02.965Z,1013.81
2017-11-10T19:55:03.621Z,1013.74
2017-11-10T20:00:03.344Z,1013.89
2017-11-10T20:05:02.914Z,1013.85
2017-11-10T20:10:03.666Z,1013.75
2017-11-10T20:15:03.214Z,1013.81
2017-11-10T20:20:02.776Z,1013.77
2017-11-10T20:25:03.243Z,1013.73
2017-11-10T20:30:02.814Z,1013.71
2017-11-10T20:35:03.386Z,1013.74
2017-11-10T20:40:02.943Z,1013.75
2017-11-10T20:45:03.453Z,1013.76
2017-11-10T20:50:03.118Z,1013.7
2017-11-10T20:55:02.843Z,1013.73
2017-11-10T21:00:03.329Z,1013.78
2017-11-10T21:05:02.863Z,1013.77
2017-11-10T21:10:03.387Z,1013.72
2017-11-10T21:15:03.142Z,1013.67
2017-11-10T21:20:02.688Z,1013.81
2017-11-10T21:25:03.379Z,1013.75
2017-11-10T21:30:02.988Z,1013.65
2017-11-10T21:35:02.741Z,1013.62
2017-11-10T21:40:03.446Z,1013.66
2017-11-10T21:45:03.160Z,1013.67
2017-11-10T21:50:02.784Z,1013.62
2017-11-10T21:55:03.274Z,1013.49
2017-11-10T22:00:02.864Z,1013.5
2017-11-10T22:05:03.618Z,1013.46
2017-11-10T22:10:03.180Z,1013.46
2017-11-10T22:15:02.759Z,1013.4
2017-11-10T22:20:03.453Z,1013.28
2017-11-10T22:25:03.005Z,1013.29
2017-11-10T22:30:03.473Z,1013.26
2017-11-10T22:35:02.937Z,1013.14
2017-11-10T22:40:03.693Z,1013.18
2017-11-10T22:45:03.198Z,1013.28
2017-11-10T22:50:03.682Z,1013.25
2017-11-10T22:55:03.315Z,1013.29
2017-11-10T23:00:02.842Z,1013.35
2017-11-10T23:05:03.547Z,1013.4
2017-11-10T23:10:03.316Z,1013.34
2017-11-10T23:15:02.817Z,1013.35
2017-11-10T23:20:03.361Z,1013.25
2017-11-10T23:25:03.023Z,1013.21
2017-11-10T23:30:03.485Z,1013.15
2017-11-10T23:35:02.966Z,1013.41
2017-11-10T23:40:02.724Z,1013.79
2017-11-10T23:45:03.211Z,1013.15
2017-11-10T23:50:02.946Z,1013.14
2017-11-10T23:55:03.624Z,1013.19
